createdAt,value
2023-03-26T00:00:57.891Z,8.30
2023-03-26T00:03:41.222Z,8.30
2023-03-26T00:06:13.294Z,8.30
2023-03-26T00:08:46.070Z,8.20
2023-03-26T00:11:17.572Z,8.20
2023-03-26T00:13:54.037Z,8.20
2023-03-26T00:16:24.636Z,8.10
2023-03-26T00:18:55.720Z,8.20
2023-03-26T00:21:29.304Z,8.10
2023-03-26T00:24:04.675Z,8.10
2023-03-26T00:26:35.811Z,8.10
2023-03-26T00:29:10.589Z,8.00
2023-03-26T00:31:41.611Z,8.00
2023-03-26T00:34:14.003Z,8.00
2023-03-26T00:36:48.232Z,8.00
2023-03-26T00:39:19.238Z,8.00
2023-03-26T00:41:54.851Z,8.00
2023-03-26T00:44:28.681Z,7.90
2023-03-26T00:46:59.609Z,7.90
2023-03-26T00:49:31.013Z,7.90
2023-03-26T00:52:03.452Z,7.90
2023-03-26T00:54:34.382Z,7.90
2023-03-26T00:57:07.171Z,7.90
2023-03-26T00:59:40.897Z,8.00
2023-03-26T01:02:17.338Z,8.00
2023-03-26T01:04:49.161Z,7.90
2023-03-26T01:07:22.246Z,8.00
2023-03-26T01:09:55.074Z,8.00
2023-03-26T01:12:27.085Z,7.90
2023-03-26T01:15:04.300Z,8.00
2023-03-26T01:17:38.227Z,7.90
2023-03-26T01:20:13.782Z,7.90
2023-03-26T01:22:45.546Z,8.00
2023-03-26T01:25:20.097Z,8.00
2023-03-26T01:27:52.089Z,8.00
2023-03-26T01:30:27.747Z,8.00
2023-03-26T01:33:02.255Z,8.00
2023-03-26T01:35:37.210Z,8.00
2023-03-26T01:38:16.769Z,8.00
2023-03-26T01:40:52.392Z,8.00
2023-03-26T01:43:31.817Z,8.00
2023-03-26T01:46:04.128Z,8.00
2023-03-26T01:48:36.713Z,8.00
2023-03-26T01:51:08.349Z,8.00
2023-03-26T01:53:41.142Z,8.00
2023-03-26T01:56:17.765Z,8.00
2023-03-26T01:58:54.642Z,8.00
2023-03-26T02:01:30.525Z,8.00
2023-03-26T02:04:05.334Z,8.00
2023-03-26T02:06:40.606Z,8.00
2023-03-26T02:09:13.068Z,8.00
2023-03-26T02:11:47.120Z,8.10
2023-03-26T02:14:17.981Z,8.00
2023-03-26T02:16:49.364Z,8.00
2023-03-26T02:19:22.103Z,8.00
2023-03-26T02:22:00.043Z,8.10
2023-03-26T02:24:33.353Z,8.00
2023-03-26T02:27:08.036Z,8.10
2023-03-26T02:29:40.205Z,8.10
2023-03-26T02:32:15.151Z,8.10
2023-03-26T02:34:46.274Z,8.10
2023-03-26T02:37:19.428Z,8.10
2023-03-26T02:39:53.438Z,8.10
2023-03-26T02:42:35.170Z,8.20
2023-03-26T02:45:06.162Z,8.10
2023-03-26T02:47:57.881Z,8.10
2023-03-26T02:50:50.404Z,8.20
2023-03-26T02:53:41.599Z,8.20
2023-03-26T02:56:25.935Z,8.10
2023-03-26T02:59:19.431Z,8.10
2023-03-26T03:01:54.874Z,8.10
2023-03-26T03:04:26.563Z,8.10
2023-03-26T03:06:58.046Z,8.20
2023-03-26T03:09:29.965Z,8.10
2023-03-26T03:12:29.934Z,8.20
2023-03-26T03:15:03.917Z,8.20
2023-03-26T03:17:34.780Z,8.10
2023-03-26T03:20:09.588Z,8.20
2023-03-26T03:22:41.597Z,8.20
2023-03-26T03:25:14.775Z,8.10
2023-03-26T03:27:45.520Z,8.10
2023-03-26T03:30:20.337Z,8.10
2023-03-26T03:33:26.752Z,8.20
2023-03-26T03:35:59.631Z,8.10
2023-03-26T03:38:31.237Z,8.10
2023-03-26T03:41:02.285Z,8.10
2023-03-26T03:43:34.074Z,8.20
2023-03-26T03:46:28.381Z,8.20
2023-03-26T03:48:59.054Z,8.20
2023-03-26T03:51:36.960Z,8.20
2023-03-26T03:54:14.118Z,8.10
2023-03-26T03:56:50.829Z,8.10
2023-03-26T03:59:21.385Z,8.10
2023-03-26T04:01:55.503Z,8.10
2023-03-26T04:04:38.129Z,8.10
2023-03-26T04:07:13.057Z,8.10
2023-03-26T04:10:04.870Z,8.10
2023-03-26T04:12:55.732Z,8.00
2023-03-26T04:15:41.995Z,8.00
2023-03-26T04:18:15.690Z,8.00
2023-03-26T04:20:49.657Z,8.00
2023-03-26T04:23:29.669Z,8.00
2023-03-26T04:26:11.081Z,8.00
2023-03-26T04:29:03.148Z,8.00
2023-03-26T04:31:36.576Z,7.90
2023-03-26T04:34:14.608Z,8.00
2023-03-26T04:37:05.746Z,8.00
2023-03-26T04:39:45.235Z,8.00
2023-03-26T04:42:46.615Z,8.00
2023-03-26T04:45:30.672Z,8.00
2023-03-26T04:48:02.695Z,8.00
2023-03-26T04:50:36.416Z,8.00
2023-03-26T04:53:07.083Z,8.00
2023-03-26T04:56:10.127Z,8.00
2023-03-26T04:59:01.980Z,8.10
2023-03-26T05:01:38.117Z,8.00
2023-03-26T05:04:09.604Z,8.00
2023-03-26T05:06:43.846Z,8.00
2023-03-26T05:09:23.708Z,8.00
2023-03-26T05:12:12.524Z,8.00
2023-03-26T05:14:57.023Z,8.00
2023-03-26T05:17:46.767Z,8.00
2023-03-26T05:20:28.258Z,8.00
2023-03-26T05:23:02.467Z,8.10
2023-03-26T05:25:35.517Z,8.10
2023-03-26T05:28:09.240Z,8.00
2023-03-26T05:30:48.054Z,8.00
2023-03-26T05:33:19.536Z,8.10
2023-03-26T05:36:04.968Z,8.10
2023-03-26T05:38:39.622Z,8.10
2023-03-26T05:41:13.332Z,8.10
2023-03-26T05:43:48.511Z,8.10
2023-03-26T05:46:27.628Z,8.10
2023-03-26T05:48:58.787Z,8.20
2023-03-26T05:51:29.764Z,8.20
2023-03-26T05:54:21.537Z,8.20
2023-03-26T05:57:10.635Z,8.20
2023-03-26T05:59:59.920Z,8.20
2023-03-26T06:02:49.329Z,8.30
2023-03-26T06:05:39.978Z,8.30
2023-03-26T06:08:16.289Z,8.30
2023-03-26T06:11:01.112Z,8.30
2023-03-26T06:13:34.733Z,8.30
2023-03-26T06:16:05.798Z,8.40
2023-03-26T06:18:42.273Z,8.40
2023-03-26T06:21:31.966Z,8.40
2023-03-26T06:24:13.648Z,8.50
2023-03-26T06:26:47.185Z,8.50
2023-03-26T06:29:36.216Z,8.50
2023-03-26T06:32:30.326Z,8.50
2023-03-26T06:35:08.446Z,8.70
2023-03-26T06:37:40.062Z,8.60
2023-03-26T06:40:12.352Z,8.60
2023-03-26T06:43:11.040Z,8.60
2023-03-26T06:45:53.450Z,8.70
2023-03-26T06:48:33.765Z,8.70
2023-03-26T06:51:43.917Z,8.70
2023-03-26T06:54:31.573Z,8.70
2023-03-26T06:57:13.554Z,8.70
2023-03-26T06:59:56.357Z,8.70
2023-03-26T07:02:45.871Z,8.70
2023-03-26T07:05:35.700Z,8.70
2023-03-26T07:08:45.407Z,8.70
2023-03-26T07:11:36.892Z,8.80
2023-03-26T07:14:28.369Z,8.80
2023-03-26T07:17:12.544Z,8.80
2023-03-26T07:20:18.473Z,8.80
2023-03-26T07:22:51.395Z,8.90
2023-03-26T07:25:58.174Z,8.90
2023-03-26T07:29:03.650Z,9.00
2023-03-26T07:31:58.278Z,9.00
2023-03-26T07:34:57.143Z,9.10
2023-03-26T07:37:39.231Z,9.10
2023-03-26T07:40:34.867Z,9.20
2023-03-26T07:43:32.788Z,9.20
2023-03-26T07:46:13.861Z,9.40
2023-03-26T07:49:04.900Z,9.40
2023-03-26T07:51:50.299Z,9.50
2023-03-26T07:54:47.249Z,9.60
2023-03-26T07:57:44.621Z,9.70
2023-03-26T08:00:40.777Z,9.80
2023-03-26T08:03:29.352Z,9.80
2023-03-26T08:06:40.360Z,9.90
2023-03-26T08:09:38.210Z,10.00
2023-03-26T08:12:43.035Z,10.10
2023-03-26T08:15:17.210Z,10.10
2023-03-26T08:17:53.573Z,10.10
2023-03-26T08:20:31.483Z,10.10
2023-03-26T08:23:05.484Z,10.10
2023-03-26T08:25:44.993Z,10.10
2023-03-26T08:28:24.896Z,10.10
2023-03-26T08:30:56.600Z,10.10
2023-03-26T08:33:30.095Z,10.10
2023-03-26T08:36:01.585Z,10.10
2023-03-26T08:38:32.433Z,10.10
2023-03-26T08:41:19.766Z,10.20
2023-03-26T08:44:11.664Z,10.20
2023-03-26T08:46:57.658Z,10.30
2023-03-26T08:49:44.801Z,10.40
2023-03-26T08:52:33.530Z,10.50
2023-03-26T08:55:18.899Z,10.60
2023-03-26T08:58:09.275Z,10.70
2023-03-26T09:01:03.944Z,10.80
2023-03-26T09:03:48.626Z,10.70
2023-03-26T09:06:39.731Z,10.70
2023-03-26T09:09:34.907Z,10.70
2023-03-26T09:12:15.628Z,10.80
2023-03-26T09:15:00.233Z,10.90
2023-03-26T09:17:49.566Z,10.90
2023-03-26T09:20:43.134Z,10.90
2023-03-26T09:23:27.387Z,11.00
2023-03-26T09:26:19.286Z,11.00
2023-03-26T09:29:04.749Z,11.10
2023-03-26T09:31:51.707Z,11.10
2023-03-26T09:34:39.891Z,11.10
2023-03-26T09:37:20.098Z,11.20
2023-03-26T09:39:58.502Z,11.20
2023-03-26T09:42:39.781Z,11.20
2023-03-26T09:45:34.931Z,11.20
2023-03-26T09:48:21.280Z,11.10
2023-03-26T09:50:57.218Z,11.10
2023-03-26T09:53:38.985Z,11.00
2023-03-26T09:56:15.263Z,11.00
2023-03-26T09:58:57.190Z,11.00
2023-03-26T10:01:32.376Z,11.10
2023-03-26T10:04:17.083Z,11.10
2023-03-26T10:06:53.357Z,11.10
2023-03-26T10:09:40.623Z,11.20
2023-03-26T10:12:18.991Z,11.30
2023-03-26T10:14:57.949Z,11.30
2023-03-26T10:17:36.081Z,11.50
2023-03-26T10:20:18.065Z,11.50
2023-03-26T10:22:54.480Z,11.60
2023-03-26T10:25:32.706Z,11.70
2023-03-26T10:28:12.563Z,11.80
2023-03-26T10:30:59.287Z,11.80
2023-03-26T10:33:34.754Z,11.80
2023-03-26T10:36:15.304Z,11.70
2023-03-26T10:38:56.765Z,11.70
2023-03-26T10:41:32.834Z,11.60
2023-03-26T10:44:20.013Z,11.50
2023-03-26T10:46:59.235Z,11.50
2023-03-26T10:49:36.631Z,11.60
2023-03-26T10:52:09.559Z,11.60
2023-03-26T10:54:46.117Z,11.60
2023-03-26T10:57:23.375Z,11.70
2023-03-26T10:59:54.602Z,11.80
2023-03-26T11:02:33.429Z,11.80
2023-03-26T11:05:13.503Z,11.90
2023-03-26T11:07:47.614Z,11.90
2023-03-26T11:10:21.702Z,11.90
2023-03-26T11:12:56.099Z,11.90
2023-03-26T11:15:30.172Z,12.00
2023-03-26T11:18:08.065Z,12.10
2023-03-26T11:20:40.885Z,12.20
2023-03-26T11:23:21.043Z,12.20
2023-03-26T11:25:59.613Z,12.30
2023-03-26T11:28:37.367Z,12.40
2023-03-26T11:31:10.984Z,12.50
2023-03-26T11:33:48.094Z,12.50
2023-03-26T11:36:20.743Z,12.50
2023-03-26T11:38:53.376Z,12.40
2023-03-26T11:41:31.205Z,12.30
2023-03-26T11:44:17.790Z,12.20
2023-03-26T11:46:49.684Z,12.10
2023-03-26T11:49:24.981Z,11.90
2023-03-26T11:51:55.540Z,11.60
2023-03-26T11:54:26.718Z,11.30
2023-03-26T11:57:04.481Z,11.10
2023-03-26T11:59:53.074Z,10.90
2023-03-26T12:02:29.815Z,10.80
2023-03-26T12:05:25.239Z,10.70
2023-03-26T12:08:00.464Z,10.50
2023-03-26T12:10:34.709Z,10.50
2023-03-26T12:13:08.955Z,10.40
2023-03-26T12:15:45.732Z,10.30
2023-03-26T12:18:26.513Z,10.20
2023-03-26T12:21:05.582Z,10.20
2023-03-26T12:23:59.038Z,10.10
2023-03-26T12:26:39.948Z,10.10
2023-03-26T12:29:12.474Z,10.10
2023-03-26T12:31:44.809Z,10.10
2023-03-26T12:34:18.052Z,10.10
2023-03-26T12:36:52.631Z,10.20
2023-03-26T12:40:08.862Z,10.30
2023-03-26T12:44:45.935Z,10.30
2023-03-26T12:45:19.428Z,10.40
2023-03-26T12:47:59.882Z,10.50
2023-03-26T12:50:37.531Z,10.50
2023-03-26T12:53:18.276Z,10.50
2023-03-26T12:55:56.850Z,10.60
2023-03-26T12:58:38.641Z,10.70
2023-03-26T13:01:16.324Z,10.70
2023-03-26T13:03:58.909Z,10.70
2023-03-26T13:06:58.976Z,10.80
2023-03-26T13:09:41.523Z,10.80
2023-03-26T13:12:21.506Z,10.80
2023-03-26T13:14:59.760Z,10.90
2023-03-26T13:17:36.763Z,11.00
2023-03-26T13:20:12.612Z,11.00
2023-03-26T13:22:49.379Z,11.00
2023-03-26T13:25:26.008Z,11.10
2023-03-26T13:28:03.304Z,11.20
2023-03-26T13:30:37.461Z,11.40
2023-03-26T13:33:15.374Z,11.50
2023-03-26T13:35:50.791Z,11.60
2023-03-26T13:38:25.981Z,11.60
2023-03-26T13:41:03.803Z,11.50
2023-03-26T13:43:46.026Z,11.50
2023-03-26T13:46:21.459Z,11.40
2023-03-26T13:48:54.190Z,11.30
2023-03-26T13:51:28.230Z,11.10
2023-03-26T13:54:02.571Z,11.10
2023-03-26T13:56:37.365Z,11.10
2023-03-26T13:59:13.876Z,11.10
2023-03-26T14:01:50.542Z,11.10
2023-03-26T14:04:25.014Z,11.10
2023-03-26T14:07:00.968Z,11.20
2023-03-26T14:09:33.931Z,11.20
2023-03-26T14:12:21.337Z,11.30
2023-03-26T14:14:56.718Z,11.30
2023-03-26T14:17:30.339Z,11.30
2023-03-26T14:20:15.895Z,11.30
2023-03-26T14:22:57.215Z,11.20
2023-03-26T14:25:38.304Z,11.10
2023-03-26T14:28:14.106Z,11.10
2023-03-26T14:30:54.884Z,11.00
2023-03-26T14:33:35.804Z,10.90
2023-03-26T14:36:14.486Z,10.80
2023-03-26T14:39:06.811Z,10.70
2023-03-26T14:41:42.635Z,10.70
2023-03-26T14:44:48.596Z,10.60
2023-03-26T14:47:24.448Z,10.70
2023-03-26T14:50:20.757Z,10.70
2023-03-26T14:52:53.002Z,10.60
2023-03-26T14:55:53.885Z,10.60
2023-03-26T14:58:31.026Z,10.60
2023-03-26T15:01:22.817Z,10.60
2023-03-26T15:04:20.526Z,10.60
2023-03-26T15:07:13.248Z,10.50
2023-03-26T15:09:59.767Z,10.40
2023-03-26T15:12:41.938Z,10.40
2023-03-26T15:15:36.325Z,10.40
2023-03-26T15:18:31.512Z,10.40
2023-03-26T15:21:18.788Z,10.30
2023-03-26T15:24:12.162Z,10.30
2023-03-26T15:26:59.795Z,10.30
2023-03-26T15:29:53.014Z,10.30
2023-03-26T15:32:41.453Z,10.30
2023-03-26T15:35:28.082Z,10.30
2023-03-26T15:38:16.863Z,10.20
2023-03-26T15:40:54.576Z,10.20
2023-03-26T15:43:29.558Z,10.20
2023-03-26T15:46:24.114Z,10.20
2023-03-26T15:49:06.704Z,10.10
2023-03-26T15:51:47.391Z,9.90
2023-03-26T15:54:24.880Z,9.60
2023-03-26T15:57:04.953Z,9.30
2023-03-26T15:59:54.672Z,9.30
2023-03-26T16:02:31.285Z,9.20
2023-03-26T16:05:23.580Z,9.20
2023-03-26T16:08:03.439Z,9.10
2023-03-26T16:10:41.132Z,9.10
2023-03-26T16:13:26.911Z,9.10
2023-03-26T16:15:59.333Z,9.00
2023-03-26T16:18:41.391Z,9.00
2023-03-26T16:21:32.440Z,9.00
2023-03-26T16:24:22.062Z,9.00
2023-03-26T16:27:01.993Z,8.90
2023-03-26T16:29:34.846Z,8.90
2023-03-26T16:32:18.307Z,9.00
2023-03-26T16:34:53.218Z,9.00
2023-03-26T16:37:38.804Z,9.00
2023-03-26T16:40:24.869Z,9.00
2023-03-26T16:43:02.084Z,9.00
2023-03-26T16:45:37.681Z,9.10
2023-03-26T16:48:14.429Z,9.20
2023-03-26T16:50:49.051Z,9.10
2023-03-26T16:53:30.274Z,9.10
2023-03-26T16:56:02.989Z,9.10
2023-03-26T16:58:40.400Z,9.10
2023-03-26T17:01:16.244Z,9.10
2023-03-26T17:03:50.394Z,9.10
2023-03-26T17:06:28.398Z,9.10
2023-03-26T17:09:04.634Z,9.00
2023-03-26T17:11:40.527Z,8.90
2023-03-26T17:14:22.301Z,8.90
2023-03-26T17:17:07.267Z,8.90
2023-03-26T17:19:42.528Z,8.90
2023-03-26T17:22:17.511Z,8.90
2023-03-26T17:24:58.361Z,8.90
2023-03-26T17:27:50.393Z,8.80
2023-03-26T17:30:36.908Z,8.80
2023-03-26T17:33:16.793Z,8.80
2023-03-26T17:35:48.398Z,8.80
2023-03-26T17:38:34.608Z,8.80
2023-03-26T17:41:06.209Z,8.80
2023-03-26T17:43:47.600Z,8.80
2023-03-26T17:46:35.808Z,8.80
2023-03-26T17:49:16.313Z,8.80
2023-03-26T17:51:51.041Z,8.80
2023-03-26T17:54:27.798Z,8.80
2023-03-26T17:56:59.464Z,8.80
2023-03-26T17:59:32.256Z,8.80
2023-03-26T18:02:03.873Z,8.70
2023-03-26T18:04:39.690Z,8.60
2023-03-26T18:07:17.371Z,8.60
2023-03-26T18:09:54.902Z,8.60
2023-03-26T18:12:37.616Z,8.60
2023-03-26T18:15:26.379Z,8.60
2023-03-26T18:18:00.230Z,8.60
2023-03-26T18:20:36.833Z,8.60
2023-03-26T18:23:13.170Z,8.60
2023-03-26T18:25:44.600Z,8.60
2023-03-26T18:28:17.216Z,8.60
2023-03-26T18:30:52.452Z,8.60
2023-03-26T18:33:23.180Z,8.60
2023-03-26T18:35:58.229Z,8.60
2023-03-26T18:38:35.798Z,8.60
2023-03-26T18:41:10.415Z,8.50
2023-03-26T18:43:43.918Z,8.60
2023-03-26T18:46:17.186Z,8.50
2023-03-26T18:48:49.540Z,8.50
2023-03-26T18:51:23.464Z,8.50
2023-03-26T18:53:55.737Z,8.40
2023-03-26T18:56:34.437Z,8.40
2023-03-26T18:59:06.202Z,8.40
2023-03-26T19:01:38.470Z,8.40
2023-03-26T19:04:10.794Z,8.40
2023-03-26T19:06:45.144Z,8.40
2023-03-26T19:09:30.852Z,8.30
2023-03-26T19:12:07.902Z,8.40
2023-03-26T19:14:53.578Z,8.30
2023-03-26T19:17:26.286Z,8.40
2023-03-26T19:19:58.640Z,8.40
2023-03-26T19:22:33.429Z,8.30
2023-03-26T19:25:05.896Z,8.40
2023-03-26T19:27:38.759Z,8.40
2023-03-26T19:30:10.477Z,8.40
2023-03-26T19:32:41.658Z,8.30
2023-03-26T19:35:22.678Z,8.40
2023-03-26T19:37:57.278Z,8.40
2023-03-26T19:40:30.869Z,8.30
2023-03-26T19:43:03.793Z,8.30
2023-03-26T19:45:37.546Z,8.40
2023-03-26T19:48:46.013Z,8.30
2023-03-26T19:51:22.935Z,8.30
2023-03-26T19:54:03.417Z,8.30
2023-03-26T19:56:34.138Z,8.30
2023-03-26T19:59:05.545Z,8.30
2023-03-26T20:01:36.795Z,8.30
2023-03-26T20:04:08.810Z,8.20
2023-03-26T20:06:43.773Z,8.20
2023-03-26T20:09:17.833Z,8.20
2023-03-26T20:11:49.999Z,8.10
2023-03-26T20:14:26.562Z,8.10
2023-03-26T20:16:57.545Z,8.10
2023-03-26T20:19:29.933Z,8.00
2023-03-26T20:22:01.045Z,8.00
2023-03-26T20:24:35.493Z,7.90
2023-03-26T20:27:06.162Z,8.00
2023-03-26T20:29:37.190Z,7.90
2023-03-26T20:32:09.853Z,7.80
2023-03-26T20:34:41.766Z,7.80
2023-03-26T20:37:12.576Z,7.70
2023-03-26T20:39:47.246Z,7.70
2023-03-26T20:42:20.096Z,7.70
2023-03-26T20:44:51.501Z,7.70
2023-03-26T20:47:22.128Z,7.60
2023-03-26T20:49:53.371Z,7.60
2023-03-26T20:52:25.866Z,7.60
2023-03-26T20:54:59.489Z,7.60
2023-03-26T20:57:30.858Z,7.60
2023-03-26T21:00:02.037Z,7.60
2023-03-26T21:02:32.834Z,7.60
2023-03-26T21:05:04.336Z,7.50
2023-03-26T21:07:35.621Z,7.60
2023-03-26T21:10:10.144Z,7.60
2023-03-26T21:12:44.473Z,7.60
2023-03-26T21:15:22.902Z,7.60
2023-03-26T21:17:55.327Z,7.60
2023-03-26T21:20:28.254Z,7.60
2023-03-26T21:23:05.193Z,7.60
2023-03-26T21:25:42.650Z,7.60
2023-03-26T21:28:18.078Z,7.50
2023-03-26T21:30:51.307Z,7.50
2023-03-26T21:33:22.476Z,7.50
2023-03-26T21:35:54.147Z,7.40
2023-03-26T21:38:26.342Z,7.30
2023-03-26T21:41:04.195Z,7.30
2023-03-26T21:43:35.779Z,7.20
2023-03-26T21:46:07.124Z,7.10
2023-03-26T21:48:38.212Z,7.10
2023-03-26T21:51:09.720Z,7.10
2023-03-26T21:53:40.676Z,7.00
2023-03-26T21:56:21.855Z,6.90
2023-03-26T21:58:56.043Z,6.80
2023-03-26T22:01:31.433Z,6.80
2023-03-26T22:04:06.397Z,6.70
2023-03-26T22:06:43.251Z,6.60
2023-03-26T22:09:16.670Z,6.60
2023-03-26T22:11:52.715Z,6.60
2023-03-26T22:14:26.086Z,6.60
2023-03-26T22:16:57.095Z,6.60
2023-03-26T22:19:30.161Z,6.60
2023-03-26T22:22:01.980Z,6.60
2023-03-26T22:24:33.266Z,6.60
2023-03-26T22:27:08.107Z,6.60
2023-03-26T22:29:38.704Z,6.60
2023-03-26T22:32:10.256Z,6.70
2023-03-26T22:34:41.946Z,6.70
2023-03-26T22:37:13.861Z,6.70
2023-03-26T22:39:44.410Z,6.70
2023-03-26T22:42:19.805Z,6.60
2023-03-26T22:44:50.869Z,6.60
2023-03-26T22:47:22.802Z,6.60
2023-03-26T22:49:54.266Z,6.60
2023-03-26T22:52:26.572Z,6.60
2023-03-26T22:54:57.385Z,6.60
2023-03-26T22:57:31.288Z,6.50
2023-03-26T23:00:13.168Z,6.50
2023-03-26T23:02:45.165Z,6.40
2023-03-26T23:05:17.795Z,6.40
2023-03-26T23:07:49.807Z,6.40
2023-03-26T23:10:21.988Z,6.30
2023-03-26T23:12:55.862Z,6.30
2023-03-26T23:15:26.921Z,6.20
2023-03-26T23:18:02.285Z,6.20
2023-03-26T23:20:38.248Z,6.20
2023-03-26T23:23:10.336Z,6.10
2023-03-26T23:25:41.920Z,6.10
2023-03-26T23:28:17.872Z,6.20
2023-03-26T23:30:52.575Z,6.10
2023-03-26T23:33:24.029Z,6.10
2023-03-26T23:35:57.946Z,6.20
2023-03-26T23:38:29.441Z,6.20
2023-03-26T23:41:16.080Z,6.20
2023-03-26T23:43:54.440Z,6.20
2023-03-26T23:46:30.868Z,6.20
2023-03-26T23:49:03.801Z,6.20
2023-03-26T23:51:36.377Z,6.20
2023-03-26T23:54:08.990Z,6.20
2023-03-26T23:56:39.913Z,6.20
2023-03-26T23:59:14.043Z,6.30
